Time;durP1;ratioP1;P1;durP2;ratioP2;P2;SDS_P1;SDS_P2;PMS_P1;PMS_P2;Temp;Humidity;BMP_temperature;BMP_pressure;BME280_temperature;BME280_humidity;BME280_pressure;Samples;Min_cycle;Max_cycle;Signal;HPM_P1;HPM_P2
2023/05/15 00:01:44;;;;;;;;;;;;;;;11.93;73.33;102242.13;5112926;28;19957;-71
2023/05/15 00:04:10;;;;;;;;;;;;;;;11.88;72.90;102237.19;5112017;28;19915;-70
2023/05/15 00:06:35;;;;;;;;;;;;;;;11.87;73.13;102231.97;5112337;28;19915;-70
2023/05/15 00:09:00;;;;;;;;;;;;;;;11.85;72.78;102244.59;5112631;28;19916;-70
2023/05/15 00:11:26;;;;;;;;;;;;;;;11.83;72.20;102239.38;5115884;28;19912;-71
2023/05/15 00:13:52;;;;;;;;;;;;;;;11.80;73.13;102237.00;5116173;28;19957;-69
2023/05/15 00:16:17;;;;;;;;;;;;;;;11.76;73.52;102241.72;5115843;28;19918;-70
2023/05/15 00:18:43;;;;;;;;;;;;;;;11.73;73.15;102241.16;5097676;28;19935;-70
2023/05/15 00:21:08;;;;;;;;;;;;;;;11.70;74.13;102249.44;5097707;28;19919;-71
2023/05/15 00:23:34;;;;;;;;;;;;;;;11.66;73.88;102245.34;5115960;28;19912;-70
2023/05/15 00:25:59;;;;;;;;;;;;;;;11.62;74.17;102243.94;5116150;28;20256;-70
2023/05/15 00:28:24;;;;;;;;;;;;;;;11.58;74.61;102248.69;5116052;28;19911;-71
2023/05/15 00:30:51;;;;;;;;;;;;;;;11.56;73.73;102245.28;5115793;28;20086;-69
2023/05/15 00:33:16;;;;;;;;;;;;;;;11.56;73.39;102244.44;5115571;28;19912;-71
2023/05/15 00:35:41;;;;;;;;;;;;;;;11.53;74.97;102239.38;5115752;28;20037;-71
2023/05/15 00:38:07;;;;;;;;;;;;;;;11.49;74.87;102247.63;5115997;28;20057;-70
2023/05/15 00:40:34;;;;;;;;;;;;;;;11.47;75.00;102238.91;5115578;28;19955;-70
2023/05/15 00:43:00;;;;;;;;;;;;;;;11.45;75.50;102232.88;5115544;28;19912;-70
2023/05/15 00:45:27;;;;;;;;;;;;;;;11.44;75.29;102235.69;5115440;28;20395;-69
2023/05/15 00:47:53;;;;;;;;;;;;;;;11.41;74.90;102234.13;5115213;28;19918;-69
2023/05/15 00:50:19;;;;;;;;;;;;;;;11.38;75.45;102231.72;5115383;28;19923;-70
2023/05/15 00:52:44;;;;;;;;;;;;;;;11.35;75.34;102237.31;5115438;28;19916;-69
2023/05/15 00:55:10;;;;;;;;;;;;;;;11.34;75.89;102235.63;5115376;28;20003;-69
2023/05/15 00:57:36;;;;;;;;;;;;;;;11.34;75.43;102237.47;5115405;28;19935;-69
2023/05/15 01:00:03;;;;;;;;;;;;;;;11.32;75.60;102237.59;5118840;28;19916;-72
2023/05/15 01:02:29;;;;;;;;;;;;;;;11.31;76.17;102229.72;5116172;28;19911;-69
2023/05/15 01:04:55;;;;;;;;;;;;;;;11.29;76.00;102232.53;5119114;28;20308;-70
2023/05/15 01:07:20;;;;;;;;;;;;;;;11.30;76.59;102230.69;5118494;28;19912;-70
2023/05/15 01:09:46;;;;;;;;;;;;;;;11.32;75.61;102228.75;5123480;28;19957;-70
2023/05/15 01:12:13;;;;;;;;;;;;;;;11.32;74.06;102226.91;5104154;28;19911;-71
2023/05/15 01:14:39;;;;;;;;;;;;;;;11.30;75.08;102223.53;5116058;28;19919;-69
2023/05/15 01:17:04;;;;;;;;;;;;;;;11.30;75.33;102228.88;5115144;28;19912;-70
2023/05/15 01:19:29;;;;;;;;;;;;;;;11.30;75.75;102225.38;5114619;28;20007;-70
2023/05/15 01:22:07;;;;;;;;;;;;;;;11.30;76.77;102226.22;5114209;28;19966;-69
2023/05/15 01:25:01;;;;;;;;;;;;;;;11.33;75.76;102222.44;5114872;28;19919;-71
2023/05/15 01:27:38;;;;;;;;;;;;;;;11.37;75.10;102230.03;5114575;28;19912;-72
2023/05/15 01:30:04;;;;;;;;;;;;;;;11.42;73.97;102227.81;5114542;28;19912;-71
2023/05/15 01:32:48;;;;;;;;;;;;;;;11.43;73.62;102224.16;5114525;28;19918;-70
2023/05/15 01:35:28;;;;;;;;;;;;;;;11.43;73.63;102224.16;5114415;28;20363;-71
2023/05/15 01:38:00;;;;;;;;;;;;;;;11.41;73.52;102228.78;5114172;28;19912;-69
2023/05/15 01:40:26;;;;;;;;;;;;;;;11.41;74.28;102234.13;5114446;28;19922;-70
2023/05/15 01:43:00;;;;;;;;;;;;;;;11.45;73.80;102224.03;5114416;28;19989;-70
2023/05/15 01:45:26;;;;;;;;;;;;;;;11.47;73.58;102224.72;5114415;28;19911;-70
2023/05/15 01:47:53;;;;;;;;;;;;;;;11.47;73.47;102230.06;5114152;28;19911;-71
2023/05/15 01:50:19;;;;;;;;;;;;;;;11.45;73.75;102216.03;5096051;28;19922;-69
2023/05/15 01:52:49;;;;;;;;;;;;;;;11.44;72.32;102223.19;5114228;28;19987;-69
2023/05/15 01:55:15;;;;;;;;;;;;;;;11.44;72.23;102225.00;5113954;28;20314;-70
2023/05/15 01:57:42;;;;;;;;;;;;;;;11.46;73.67;102229.22;5114064;28;20015;-69
2023/05/15 02:00:09;;;;;;;;;;;;;;;11.47;73.90;102224.72;5114075;28;19911;-70
2023/05/15 02:02:35;;;;;;;;;;;;;;;11.46;73.82;102223.91;5113989;28;20014;-71
2023/05/15 02:05:01;;;;;;;;;;;;;;;11.47;73.47;102222.06;5113823;28;19943;-70
2023/05/15 02:07:27;;;;;;;;;;;;;;;11.48;73.58;102221.94;5113985;28;20479;-71
2023/05/15 02:09:53;;;;;;;;;;;;;;;11.49;73.74;102222.78;5114365;28;19918;-70
2023/05/15 02:12:19;;;;;;;;;;;;;;;11.51;73.17;102220.81;5113712;28;19912;-70
2023/05/15 02:14:47;;;;;;;;;;;;;;;11.55;72.64;102216.06;5113759;28;19912;-70
2023/05/15 02:17:12;;;;;;;;;;;;;;;11.56;73.38;102215.91;5113581;28;19962;-70
2023/05/15 02:19:38;;;;;;;;;;;;;;;11.58;73.50;102222.00;5113402;28;19916;-70
2023/05/15 02:22:05;;;;;;;;;;;;;;;11.61;73.80;102218.22;5113707;28;19912;-70
2023/05/15 02:24:30;;;;;;;;;;;;;;;11.64;72.95;102210.78;5113675;28;20087;-70
2023/05/15 02:26:58;;;;;;;;;;;;;;;11.70;73.60;102225.41;5113662;28;20000;-70
2023/05/15 02:29:23;;;;;;;;;;;;;;;11.75;74.22;102224.03;5113477;28;19963;-70
2023/05/15 02:31:58;;;;;;;;;;;;;;;11.80;74.78;102220.97;5113100;28;19911;-70
2023/05/15 02:34:35;;;;;;;;;;;;;;;11.87;74.24;102222.16;5113574;28;19912;-69
2023/05/15 02:37:02;;;;;;;;;;;;;;;11.95;73.69;102214.28;5113397;28;19915;-70
2023/05/15 02:39:28;;;;;;;;;;;;;;;12.04;73.21;102217.97;5113382;28;19912;-69
2023/05/15 02:41:55;;;;;;;;;;;;;;;12.14;73.60;102212.63;5113242;28;19922;-71
2023/05/15 02:44:21;;;;;;;;;;;;;;;12.22;73.40;102218.16;5113001;28;19912;-69
2023/05/15 02:46:47;;;;;;;;;;;;;;;12.31;73.16;102217.31;5113146;28;19948;-69
2023/05/15 02:49:13;;;;;;;;;;;;;;;12.40;73.04;102219.16;5113107;28;19916;-70
2023/05/15 02:51:39;;;;;;;;;;;;;;;12.48;71.96;102213.97;5112986;28;19922;-69
2023/05/15 02:54:05;;;;;;;;;;;;;;;12.56;71.74;102215.94;5113093;28;19912;-70
2023/05/15 02:56:30;;;;;;;;;;;;;;;12.62;70.85;102204.69;5112854;28;19912;-70
2023/05/15 02:58:56;;;;;;;;;;;;;;;12.68;70.59;102207.63;5112918;28;19911;-68
2023/05/15 03:01:21;;;;;;;;;;;;;;;12.78;69.92;102206.81;5113192;28;19912;-70
2023/05/15 03:03:47;;;;;;;;;;;;;;;12.86;68.71;102206.94;5113120;28;19912;-69
2023/05/15 03:06:12;;;;;;;;;;;;;;;13.10;67.94;102212.66;5112792;28;19965;-69
2023/05/15 03:08:37;;;;;;;;;;;;;;;13.60;67.53;102210.59;5112830;28;19989;-70
2023/05/15 03:11:02;;;;;;;;;;;;;;;14.92;64.13;102209.16;5112800;28;19912;-70
2023/05/15 03:13:28;;;;;;;;;;;;;;;16.35;57.45;102210.22;5112645;28;19912;-71
2023/05/15 03:15:53;;;;;;;;;;;;;;;17.23;55.10;102204.19;5112853;28;19911;-70
2023/05/15 03:18:19;;;;;;;;;;;;;;;18.37;52.31;102206.44;5113094;28;19912;-68
2023/05/15 03:20:46;;;;;;;;;;;;;;;19.45;49.22;102215.97;5112576;28;20432;-69
2023/05/15 03:23:11;;;;;;;;;;;;;;;20.22;46.93;102209.28;5112858;28;20013;-69
2023/05/15 03:25:36;;;;;;;;;;;;;;;20.62;42.74;102208.69;5112814;28;19962;-69
2023/05/15 03:28:02;;;;;;;;;;;;;;;20.61;44.29;102209.72;5094362;28;19912;-69
2023/05/15 03:30:27;;;;;;;;;;;;;;;19.97;42.75;102206.94;5112515;28;19972;-69
2023/05/15 03:32:52;;;;;;;;;;;;;;;19.23;44.77;102206.06;5112407;28;19912;-68
2023/05/15 03:35:18;;;;;;;;;;;;;;;19.20;45.37;102211.84;5112620;28;19918;-69
2023/05/15 03:37:43;;;;;;;;;;;;;;;19.19;44.13;102212.88;5112826;28;20010;-70
2023/05/15 03:40:08;;;;;;;;;;;;;;;18.50;46.16;102210.22;5112838;28;19912;-69
2023/05/15 03:42:34;;;;;;;;;;;;;;;17.74;47.57;102202.06;5112812;28;19916;-70
2023/05/15 03:44:59;;;;;;;;;;;;;;;17.03;49.82;102211.78;5114583;28;19912;-70
2023/05/15 03:47:25;;;;;;;;;;;;;;;16.49;51.76;102214.13;5116546;28;19912;-70
2023/05/15 03:49:50;;;;;;;;;;;;;;;16.17;53.30;102209.50;5116372;28;19928;-70
2023/05/15 03:52:15;;;;;;;;;;;;;;;16.02;54.20;102201.22;5116289;28;19916;-70
2023/05/15 03:54:41;;;;;;;;;;;;;;;15.90;55.05;102210.59;5116484;28;19916;-70
2023/05/15 03:57:06;;;;;;;;;;;;;;;15.83;54.97;102206.84;5116604;28;19912;-69
2023/05/15 03:59:32;;;;;;;;;;;;;;;15.81;55.60;102203.50;5116455;28;19939;-71
2023/05/15 04:01:57;;;;;;;;;;;;;;;15.94;55.16;102208.44;5116577;28;20015;-70
2023/05/15 04:04:23;;;;;;;;;;;;;;;16.55;54.14;102199.16;5116335;28;20362;-70
2023/05/15 04:06:49;;;;;;;;;;;;;;;17.27;52.54;102192.91;5096717;28;19912;-73
2023/05/15 04:09:14;;;;;;;;;;;;;;;18.11;49.63;102194.13;5095580;28;20311;-70
2023/05/15 04:11:39;;;;;;;;;;;;;;;18.61;47.23;102194.63;5077191;28;19919;-69
2023/05/15 04:14:05;;;;;;;;;;;;;;;18.56;47.54;102187.94;5092687;28;19912;-70
2023/05/15 04:16:30;;;;;;;;;;;;;;;18.43;47.76;102195.75;5095122;28;20331;-70
2023/05/15 04:18:55;;;;;;;;;;;;;;;18.75;46.88;102197.41;5094138;28;20022;-68
2023/05/15 04:21:21;;;;;;;;;;;;;;;19.12;46.02;102195.72;5094126;28;19916;-69
2023/05/15 04:23:46;;;;;;;;;;;;;;;19.21;46.12;102196.47;5095174;28;19916;-71
2023/05/15 04:26:11;;;;;;;;;;;;;;;19.47;45.44;102197.72;5094958;28;20026;-69
2023/05/15 04:28:36;;;;;;;;;;;;;;;19.96;44.17;102194.44;5094872;28;20367;-68
2023/05/15 04:37:49;;;;;;;;;;;;;;;20.25;43.08;102181.88;5090231;28;19912;-66
2023/05/15 04:47:14;;;;;;;;;;;;;;;20.33;42.90;102187.16;5862105;22;20059;-71
2023/05/15 04:49:42;;;;;;;;;;;;;;;20.51;42.39;102187.56;5095068;28;19916;-66
2023/05/15 04:52:08;;;;;;;;;;;;;;;20.41;42.34;102179.75;5093048;28;19919;-67
2023/05/15 04:54:33;;;;;;;;;;;;;;;19.94;42.81;102182.94;5094566;28;19912;-69
2023/05/15 04:56:58;;;;;;;;;;;;;;;19.23;44.25;102189.88;5093547;28;19912;-68
2023/05/15 04:59:24;;;;;;;;;;;;;;;18.91;45.54;102182.09;5094615;28;19919;-67
2023/05/15 05:01:50;;;;;;;;;;;;;;;18.96;45.40;102182.38;5094749;28;19918;-68
2023/05/15 05:04:18;;;;;;;;;;;;;;;19.07;45.27;102185.47;5094330;28;19911;-67
2023/05/15 05:06:43;;;;;;;;;;;;;;;18.95;45.73;102178.00;5094662;28;20007;-69
2023/05/15 05:09:09;;;;;;;;;;;;;;;18.56;45.75;102181.69;5094677;28;19950;-70
2023/05/15 05:11:35;;;;;;;;;;;;;;;17.97;47.23;102180.56;5094503;28;20260;-68
2023/05/15 05:14:00;;;;;;;;;;;;;;;17.36;48.09;102172.19;5094552;28;19912;-69
2023/05/15 05:16:25;;;;;;;;;;;;;;;16.91;49.80;102173.63;5094633;28;19912;-67
2023/05/15 05:18:51;;;;;;;;;;;;;;;16.62;50.97;102178.66;5095079;28;19919;-68
2023/05/15 05:21:16;;;;;;;;;;;;;;;16.39;52.10;102178.44;5094517;28;20007;-67
2023/05/15 05:23:41;;;;;;;;;;;;;;;16.27;52.15;102183.31;5094411;28;19920;-68
2023/05/15 05:26:07;;;;;;;;;;;;;;;16.21;52.72;102175.94;5076545;28;19912;-68
2023/05/15 05:28:32;;;;;;;;;;;;;;;16.12;53.70;102176.88;5094335;28;19919;-69
2023/05/15 05:30:57;;;;;;;;;;;;;;;16.04;53.28;102174.19;5094206;28;19912;-69
2023/05/15 05:33:23;;;;;;;;;;;;;;;16.04;53.62;102174.19;5094225;28;19912;-68
2023/05/15 05:35:48;;;;;;;;;;;;;;;16.10;53.52;102173.53;5075830;28;19912;-69
2023/05/15 05:38:13;;;;;;;;;;;;;;;16.17;52.92;102171.84;5093175;28;20341;-69
2023/05/15 05:40:39;;;;;;;;;;;;;;;16.28;52.50;102179.63;5093876;28;19977;-67
2023/05/15 05:43:04;;;;;;;;;;;;;;;16.36;51.96;102173.41;5093706;28;19916;-68
2023/05/15 05:45:30;;;;;;;;;;;;;;;16.38;52.00;102166.84;5092449;28;20367;-68
2023/05/15 05:47:55;;;;;;;;;;;;;;;16.40;52.35;102169.38;5094038;28;20007;-67
2023/05/15 05:50:21;;;;;;;;;;;;;;;16.45;51.79;102166.19;5093866;28;19961;-68
2023/05/15 05:52:46;;;;;;;;;;;;;;;16.51;51.52;102162.84;5093717;28;19920;-68
2023/05/15 05:55:11;;;;;;;;;;;;;;;16.56;51.10;102165.88;5093801;28;19923;-68
2023/05/15 05:57:37;;;;;;;;;;;;;;;16.65;51.55;102156.78;5093871;28;19912;-71
2023/05/15 06:00:05;;;;;;;;;;;;;;;16.78;51.64;102157.16;5093510;28;20271;-68
2023/05/15 06:02:31;;;;;;;;;;;;;;;16.89;51.17;102159.50;5092706;28;19912;-68
2023/05/15 06:04:56;;;;;;;;;;;;;;;16.97;50.97;102151.41;5092554;28;20015;-69
2023/05/15 06:07:22;;;;;;;;;;;;;;;17.09;50.56;102153.75;5092076;28;20073;-68
2023/05/15 06:09:47;;;;;;;;;;;;;;;17.14;48.81;102156.78;5092277;28;19977;-68
2023/05/15 06:12:13;;;;;;;;;;;;;;;17.19;50.41;102162.47;5092217;28;19951;-67
2023/05/15 06:14:38;;;;;;;;;;;;;;;17.24;48.76;102157.41;5092121;28;20000;-68
2023/05/15 06:17:03;;;;;;;;;;;;;;;17.32;49.23;102157.38;5090860;28;19994;-68
2023/05/15 06:19:29;;;;;;;;;;;;;;;17.47;49.09;102147.56;5093612;28;19912;-67
2023/05/15 06:21:54;;;;;;;;;;;;;;;17.59;46.81;102139.94;5094019;28;19912;-69
2023/05/15 06:24:19;;;;;;;;;;;;;;;17.72;47.80;102147.50;5093502;28;19924;-68
2023/05/15 06:26:45;;;;;;;;;;;;;;;17.89;47.56;102141.84;5093283;28;19912;-67
2023/05/15 06:29:20;;;;;;;;;;;;;;;18.09;47.31;102144.94;5093225;28;20356;-68
2023/05/15 06:31:48;;;;;;;;;;;;;;;18.29;44.64;102141.78;5092363;28;19920;-67
2023/05/15 06:34:14;;;;;;;;;;;;;;;18.49;45.53;102138.38;5093196;28;20421;-67
2023/05/15 06:36:50;;;;;;;;;;;;;;;18.73;44.44;102137.38;5093135;28;19916;-69
2023/05/15 06:39:18;;;;;;;;;;;;;;;19.00;44.71;102135.94;5093210;28;20317;-68
2023/05/15 06:41:43;;;;;;;;;;;;;;;19.28;43.02;102138.81;5074796;28;19912;-67
2023/05/15 06:44:09;;;;;;;;;;;;;;;19.55;42.38;102139.22;5092774;28;19919;-69
2023/05/15 06:46:34;;;;;;;;;;;;;;;19.76;41.50;102139.28;5093118;28;19920;-68
2023/05/15 06:49:00;;;;;;;;;;;;;;;20.02;42.19;102136.88;5092995;28;19916;-69
2023/05/15 06:51:26;;;;;;;;;;;;;;;20.25;42.04;102146.69;5092598;28;19916;-67
2023/05/15 06:53:51;;;;;;;;;;;;;;;20.36;39.25;102146.16;5092589;28;19912;-69
2023/05/15 06:56:16;;;;;;;;;;;;;;;20.36;39.14;102144.31;5092649;28;19912;-68
2023/05/15 06:58:41;;;;;;;;;;;;;;;20.27;39.97;102150.88;5092696;28;19961;-68
2023/05/15 07:01:08;;;;;;;;;;;;;;;20.15;40.01;102151.56;5074888;28;19912;-68
2023/05/15 07:03:33;;;;;;;;;;;;;;;20.02;39.10;102147.69;5092865;28;19919;-69
2023/05/15 07:05:59;;;;;;;;;;;;;;;20.08;40.49;102141.53;5092819;28;20275;-68
2023/05/15 07:08:24;;;;;;;;;;;;;;;20.24;40.68;102145.00;5074518;28;19915;-68
2023/05/15 07:10:50;;;;;;;;;;;;;;;20.29;39.89;102139.88;5092449;28;20009;-68
2023/05/15 07:13:15;;;;;;;;;;;;;;;20.26;38.57;102140.25;5092324;28;20356;-68
2023/05/15 07:15:41;;;;;;;;;;;;;;;20.15;39.46;102141.59;5092533;28;20023;-68
2023/05/15 07:18:06;;;;;;;;;;;;;;;20.13;39.55;102138.25;5092682;28;20425;-68
2023/05/15 07:20:31;;;;;;;;;;;;;;;20.20;38.40;102132.88;5090501;28;19963;-70
2023/05/15 07:22:56;;;;;;;;;;;;;;;20.33;39.22;102138.44;5092434;28;19950;-69
2023/05/15 07:25:22;;;;;;;;;;;;;;;20.56;38.38;102133.69;5092766;28;19916;-67
2023/05/15 07:27:48;;;;;;;;;;;;;;;20.66;37.70;102133.34;5074633;28;20007;-68
2023/05/15 07:30:13;;;;;;;;;;;;;;;20.82;37.08;102140.38;5092917;28;19918;-68
2023/05/15 07:32:39;;;;;;;;;;;;;;;20.85;36.18;102134.56;5092983;28;19935;-68
2023/05/15 07:35:05;;;;;;;;;;;;;;;20.75;35.93;102132.16;5092436;28;19913;-68
2023/05/15 07:37:30;;;;;;;;;;;;;;;20.61;36.85;102133.94;5092540;28;19912;-69
2023/05/15 07:39:56;;;;;;;;;;;;;;;20.53;37.73;102135.94;5091514;28;20418;-70
2023/05/15 07:42:21;;;;;;;;;;;;;;;20.33;38.09;102136.56;5092232;28;20363;-68
2023/05/15 07:44:46;;;;;;;;;;;;;;;20.09;38.92;102135.09;5092246;28;19912;-69
2023/05/15 07:47:13;;;;;;;;;;;;;;;20.04;39.31;102129.41;5088437;28;19916;-68
2023/05/15 07:49:39;;;;;;;;;;;;;;;19.99;39.77;102131.03;5072142;28;19916;-68
2023/05/15 07:52:04;;;;;;;;;;;;;;;19.93;40.62;102131.75;5072128;28;19962;-68
2023/05/15 07:54:30;;;;;;;;;;;;;;;19.92;40.63;102130.94;5073903;28;19913;-68
2023/05/15 07:56:57;;;;;;;;;;;;;;;19.99;41.17;102126.47;5078246;28;20344;-70
2023/05/15 07:59:22;;;;;;;;;;;;;;;20.11;41.69;102119.50;5071739;28;20426;-69
2023/05/15 08:01:48;;;;;;;;;;;;;;;20.14;40.77;102125.56;5071840;28;19916;-69
2023/05/15 08:04:13;;;;;;;;;;;;;;;20.06;41.61;102124.66;5071802;28;19913;-70
2023/05/15 08:06:39;;;;;;;;;;;;;;;20.04;41.47;102129.41;5071911;28;19912;-68
2023/05/15 08:09:04;;;;;;;;;;;;;;;20.13;40.92;102126.59;5069893;28;19921;-67
2023/05/15 08:11:30;;;;;;;;;;;;;;;20.23;40.62;102121.69;5075384;28;20283;-66
2023/05/15 08:13:55;;;;;;;;;;;;;;;20.32;40.75;102120.53;5092005;28;19920;-68
2023/05/15 08:16:21;;;;;;;;;;;;;;;20.46;40.83;102116.94;5092327;28;20364;-67
2023/05/15 08:18:46;;;;;;;;;;;;;;;20.46;40.69;102119.66;5092150;28;20282;-69
2023/05/15 08:21:11;;;;;;;;;;;;;;;20.41;40.91;102124.81;5091795;28;20375;-68
2023/05/15 08:23:37;;;;;;;;;;;;;;;20.30;40.89;102122.59;5091971;28;20318;-67
2023/05/15 08:26:02;;;;;;;;;;;;;;;20.18;41.00;102121.44;5091886;28;20429;-67
2023/05/15 08:28:27;;;;;;;;;;;;;;;20.13;41.20;102121.16;5092099;28;19916;-67
2023/05/15 08:30:53;;;;;;;;;;;;;;;20.07;40.84;102120.91;5093783;28;19944;-68
2023/05/15 08:33:18;;;;;;;;;;;;;;;20.04;40.63;102124.00;5095671;28;19913;-67
2023/05/15 08:35:44;;;;;;;;;;;;;;;20.05;40.91;102112.16;5095345;28;19912;-68
2023/05/15 08:38:09;;;;;;;;;;;;;;;20.08;40.49;102114.47;5094696;28;20379;-67
2023/05/15 08:40:35;;;;;;;;;;;;;;;20.07;40.82;102111.97;5094665;28;19912;-69
2023/05/15 08:43:03;;;;;;;;;;;;;;;20.06;40.50;102116.53;5095228;28;19912;-69
2023/05/15 08:45:28;;;;;;;;;;;;;;;20.01;39.38;102107.34;5094976;28;19919;-71
2023/05/15 08:47:57;;;;;;;;;;;;;;;19.98;38.62;102100.44;5104744;28;20379;-69
2023/05/15 08:50:23;;;;;;;;;;;;;;;19.92;37.50;102103.88;5097167;28;19932;-66
2023/05/15 08:52:50;;;;;;;;;;;;;;;19.98;38.67;102103.16;5115481;28;19915;-69
2023/05/15 08:55:16;;;;;;;;;;;;;;;20.07;38.90;102106.56;5119693;28;19923;-68
2023/05/15 08:57:42;;;;;;;;;;;;;;;20.17;38.91;102111.63;5122250;28;19915;-66
2023/05/15 09:00:10;;;;;;;;;;;;;;;20.26;37.82;102102.38;5117153;28;19919;-68
2023/05/15 09:02:36;;;;;;;;;;;;;;;20.32;37.38;102101.59;5097326;28;19912;-69
2023/05/15 09:05:02;;;;;;;;;;;;;;;20.34;36.85;102099.53;5119531;28;19918;-65
2023/05/15 09:07:29;;;;;;;;;;;;;;;20.37;37.18;102093.72;5101086;28;20413;-66
2023/05/15 09:09:55;;;;;;;;;;;;;;;20.45;38.17;102095.50;5116910;28;20256;-68
2023/05/15 09:12:22;;;;;;;;;;;;;;;20.51;37.26;102087.41;5115846;28;20014;-69
2023/05/15 09:14:48;;;;;;;;;;;;;;;20.66;38.22;102090.03;5115582;28;19957;-69
2023/05/15 09:17:13;;;;;;;;;;;;;;;20.84;37.22;102082.28;5115260;28;19912;-68
2023/05/15 09:19:39;;;;;;;;;;;;;;;21.00;37.13;102081.09;5115447;28;20057;-71
2023/05/15 09:22:21;;;;;;;;;;;;;;;21.19;36.56;102080.38;5115018;28;20004;-69
2023/05/15 09:24:47;;;;;;;;;;;;;;;21.34;35.90;102067.53;5115016;28;19912;-68
2023/05/15 09:27:12;;;;;;;;;;;;;;;21.48;37.20;102073.88;5114991;28;20427;-67
2023/05/15 09:29:38;;;;;;;;;;;;;;;21.65;35.77;102072.44;5114585;28;19912;-66
2023/05/15 09:32:04;;;;;;;;;;;;;;;21.77;36.70;102078.13;5114355;28;20347;-70
2023/05/15 09:34:30;;;;;;;;;;;;;;;21.84;34.51;102078.97;5114990;28;19919;-70
2023/05/15 09:36:55;;;;;;;;;;;;;;;21.79;34.15;102070.63;5114728;28;19912;-68
2023/05/15 09:39:21;;;;;;;;;;;;;;;21.69;34.11;102059.34;5115008;28;20371;-69
2023/05/15 09:41:46;;;;;;;;;;;;;;;21.55;33.13;102063.88;5114402;28;19912;-67
2023/05/15 09:44:19;;;;;;;;;;;;;;;21.54;33.36;102066.78;5114920;28;20282;-72
2023/05/15 09:46:45;;;;;;;;;;;;;;;21.60;33.67;102060.56;5115114;28;19912;-68
2023/05/15 09:49:11;;;;;;;;;;;;;;;21.58;32.91;102046.38;5114813;28;19922;-71
2023/05/15 09:51:36;;;;;;;;;;;;;;;21.46;33.36;102051.56;5114652;28;19915;-67
2023/05/15 09:54:02;;;;;;;;;;;;;;;21.37;33.83;102049.22;5114282;28;19954;-69
2023/05/15 09:56:27;;;;;;;;;;;;;;;21.35;34.59;102041.28;5095582;28;19912;-66
2023/05/15 09:58:53;;;;;;;;;;;;;;;21.39;34.80;102047.13;5114119;28;20340;-65
2023/05/15 10:01:20;;;;;;;;;;;;;;;21.54;35.01;102040.53;5113931;28;19912;-67
2023/05/15 10:04:02;;;;;;;;;;;;;;;21.74;34.48;102043.31;5115210;28;19990;-68
2023/05/15 10:06:35;;;;;;;;;;;;;;;21.75;33.09;102036.00;5117042;28;20414;-73
2023/05/15 10:09:01;;;;;;;;;;;;;;;21.72;33.57;102031.00;5121366;28;20503;-71
2023/05/15 10:11:27;;;;;;;;;;;;;;;21.74;33.00;102035.16;5116757;28;19912;-67
2023/05/15 10:13:52;;;;;;;;;;;;;;;21.78;34.10;102031.00;5116862;28;19937;-69
2023/05/15 10:16:19;;;;;;;;;;;;;;;21.84;33.71;102024.75;5114692;28;20420;-73
2023/05/15 10:18:45;;;;;;;;;;;;;;;21.91;33.49;102025.59;5114976;28;20365;-70
2023/05/15 10:21:11;;;;;;;;;;;;;;;21.94;31.86;102025.16;5114362;28;19990;-76
2023/05/15 10:23:39;;;;;;;;;;;;;;;21.96;32.94;102017.66;5114407;28;19912;-70
2023/05/15 10:26:13;;;;;;;;;;;;;;;22.03;31.75;102016.84;5113810;28;19912;-73
2023/05/15 10:28:39;;;;;;;;;;;;;;;22.08;31.73;102014.38;5113713;28;19943;-71
2023/05/15 10:31:05;;;;;;;;;;;;;;;22.06;31.91;102021.88;5113365;28;20382;-71
2023/05/15 10:33:33;;;;;;;;;;;;;;;21.97;32.16;102007.63;5113634;28;19918;-71
2023/05/15 10:35:59;;;;;;;;;;;;;;;22.08;32.66;102014.38;5113759;28;19912;-69
2023/05/15 10:38:25;;;;;;;;;;;;;;;22.13;31.55;102009.16;5113842;28;20316;-72
2023/05/15 10:40:51;;;;;;;;;;;;;;;22.15;31.71;102005.19;5113780;28;19915;-72
2023/05/15 10:43:18;;;;;;;;;;;;;;;22.15;31.84;102004.34;5114009;28;20391;-75
2023/05/15 10:45:44;;;;;;;;;;;;;;;22.14;31.83;101997.25;5113996;28;19912;-74
2023/05/15 10:48:11;;;;;;;;;;;;;;;22.16;31.44;102003.31;5113371;28;19984;-72
2023/05/15 10:50:37;;;;;;;;;;;;;;;22.23;31.99;102001.41;5113291;28;19915;-74
2023/05/15 10:53:02;;;;;;;;;;;;;;;22.34;32.24;101997.25;5112924;28;20252;-72
2023/05/15 10:55:29;;;;;;;;;;;;;;;22.35;31.31;101996.19;5115608;28;19911;-72
2023/05/15 10:57:54;;;;;;;;;;;;;;;22.41;32.28;101993.47;5124599;28;19983;-70
2023/05/15 11:00:30;;;;;;;;;;;;;;;22.50;31.29;101991.38;5126175;28;19919;-70
2023/05/15 11:02:57;;;;;;;;;;;;;;;22.53;32.04;101988.22;5132737;28;19912;-72
2023/05/15 11:05:23;;;;;;;;;;;;;;;22.54;31.79;101982.56;5117829;28;20006;-73
2023/05/15 11:08:09;;;;;;;;;;;;;;;22.68;32.27;101977.13;5098884;28;19951;-76
2023/05/15 11:10:35;;;;;;;;;;;;;;;22.75;31.25;101986.09;5086336;28;19916;-71
2023/05/15 11:13:01;;;;;;;;;;;;;;;22.73;30.90;101980.03;5092022;28;19920;-72
2023/05/15 11:15:39;;;;;;;;;;;;;;;22.82;30.17;101982.31;5093185;28;19942;-71
2023/05/15 11:18:05;;;;;;;;;;;;;;;22.83;30.09;101977.72;5092940;28;20018;-73
2023/05/15 11:20:32;;;;;;;;;;;;;;;22.90;30.47;101981.28;5092289;28;20054;-74
2023/05/15 11:23:00;;;;;;;;;;;;;;;22.98;29.94;101972.88;5090797;28;19923;-70
2023/05/15 11:25:30;;;;;;;;;;;;;;;23.09;31.55;101969.47;5090804;28;20022;-69
2023/05/15 11:27:55;;;;;;;;;;;;;;;23.15;30.92;101971.34;5091443;28;19927;-70
2023/05/15 11:30:21;;;;;;;;;;;;;;;23.21;31.02;101968.81;5091384;28;19913;-70
2023/05/15 11:32:50;;;;;;;;;;;;;;;23.27;30.04;101970.66;5091320;28;20321;-69
2023/05/15 11:35:21;;;;;;;;;;;;;;;23.17;30.11;101966.53;5091090;28;19912;-70
2023/05/15 11:37:48;;;;;;;;;;;;;;;23.13;31.56;101964.44;5090827;28;20267;-71
2023/05/15 11:40:18;;;;;;;;;;;;;;;23.17;31.39;101966.53;5092220;28;19912;-70
2023/05/15 11:43:00;;;;;;;;;;;;;;;23.16;29.81;101959.44;5092266;28;19913;-70
2023/05/15 11:45:27;;;;;;;;;;;;;;;23.10;31.26;101948.56;5074103;28;19916;-69
2023/05/15 11:47:52;;;;;;;;;;;;;;;23.05;30.05;101949.22;5092298;28;19971;-69
2023/05/15 11:50:19;;;;;;;;;;;;;;;23.03;30.94;101945.06;5092174;28;20245;-69
2023/05/15 11:52:45;;;;;;;;;;;;;;;22.91;30.41;101950.34;5092573;28;20301;-70
2023/05/15 11:55:10;;;;;;;;;;;;;;;22.87;32.13;101954.53;5092293;28;19959;-72
2023/05/15 11:57:37;;;;;;;;;;;;;;;23.05;31.34;101948.38;5091836;28;19912;-70
2023/05/15 12:00:02;;;;;;;;;;;;;;;23.08;29.59;101951.50;5092568;28;19960;-69
2023/05/15 12:02:29;;;;;;;;;;;;;;;23.03;29.45;101939.63;5073907;28;20291;-68
2023/05/15 12:04:55;;;;;;;;;;;;;;;22.85;29.67;101943.06;5092264;28;19934;-69
2023/05/15 12:07:20;;;;;;;;;;;;;;;22.93;30.09;101948.25;5096026;28;19912;-68
2023/05/15 12:09:49;;;;;;;;;;;;;;;22.98;30.14;101934.84;5096011;28;19912;-67
2023/05/15 12:12:15;;;;;;;;;;;;;;;22.86;31.03;101940.13;5095953;28;19912;-69
2023/05/15 12:14:40;;;;;;;;;;;;;;;22.73;31.31;101942.84;5096005;28;20435;-69
2023/05/15 12:17:06;;;;;;;;;;;;;;;22.60;31.46;101947.50;5095802;28;19912;-68
2023/05/15 12:19:32;;;;;;;;;;;;;;;22.55;30.71;101946.28;5095589;28;19920;-70
2023/05/15 12:21:58;;;;;;;;;;;;;;;22.51;31.54;101946.88;5095414;28;20257;-71
2023/05/15 12:24:24;;;;;;;;;;;;;;;22.47;31.79;101938.34;5095798;28;19919;-73
2023/05/15 12:26:50;;;;;;;;;;;;;;;22.50;32.07;101939.78;5095546;28;19918;-72
2023/05/15 12:29:16;;;;;;;;;;;;;;;22.55;31.63;101940.84;5095683;28;19912;-71
2023/05/15 12:31:41;;;;;;;;;;;;;;;22.59;32.23;101940.41;5095478;28;19958;-70
2023/05/15 12:34:10;;;;;;;;;;;;;;;22.64;32.10;101937.88;5095331;28;19912;-72
2023/05/15 12:36:35;;;;;;;;;;;;;;;22.72;32.40;101930.31;5095298;28;19919;-69
2023/05/15 12:39:05;;;;;;;;;;;;;;;22.74;32.66;101924.66;5095445;28;20275;-69
2023/05/15 12:41:30;;;;;;;;;;;;;;;22.71;32.64;101925.09;5095385;28;20004;-70
2023/05/15 12:43:55;;;;;;;;;;;;;;;22.62;32.57;101929.94;5095211;28;19948;-69
2023/05/15 12:46:22;;;;;;;;;;;;;;;22.55;33.11;101929.13;5095283;28;19919;-70